sensor_id;sensor_type;location;lat;lon;timestamp;P1;durP1;ratioP1;P2;durP2;ratioP2
12980;SDS011;6555;50.468;8.480;2022-09-09T00:02:15;1.00;;;0.43;;
12980;SDS011;6555;50.468;8.480;2022-09-09T00:07:24;0.40;;;0.40;;
12980;SDS011;6555;50.468;8.480;2022-09-09T00:12:36;1.83;;;0.70;;
12980;SDS011;6555;50.468;8.480;2022-09-09T00:17:48;0.43;;;0.43;;
12980;SDS011;6555;50.468;8.480;2022-09-09T00:22:57;0.90;;;0.45;;
12980;SDS011;6555;50.468;8.480;2022-09-09T00:28:08;1.38;;;0.80;;
12980;SDS011;6555;50.468;8.480;2022-09-09T00:33:19;1.20;;;0.73;;
12980;SDS011;6555;50.468;8.480;2022-09-09T00:38:26;2.17;;;0.90;;
12980;SDS011;6555;50.468;8.480;2022-09-09T00:43:38;1.60;;;0.60;;
12980;SDS011;6555;50.468;8.480;2022-09-09T00:48:46;0.68;;;0.65;;
12980;SDS011;6555;50.468;8.480;2022-09-09T00:53:58;1.60;;;0.75;;
12980;SDS011;6555;50.468;8.480;2022-09-09T00:59:15;0.75;;;0.60;;
12980;SDS011;6555;50.468;8.480;2022-09-09T01:04:32;0.70;;;0.70;;
12980;SDS011;6555;50.468;8.480;2022-09-09T01:09:42;1.67;;;0.60;;
12980;SDS011;6555;50.468;8.480;2022-09-09T01:14:56;1.77;;;0.80;;
12980;SDS011;6555;50.468;8.480;2022-09-09T01:20:10;0.65;;;0.63;;
12980;SDS011;6555;50.468;8.480;2022-09-09T01:25:28;2.28;;;0.75;;
12980;SDS011;6555;50.468;8.480;2022-09-09T01:30:42;1.85;;;0.68;;
12980;SDS011;6555;50.468;8.480;2022-09-09T01:35:50;1.25;;;0.65;;
12980;SDS011;6555;50.468;8.480;2022-09-09T01:41:00;1.13;;;0.80;;
12980;SDS011;6555;50.468;8.480;2022-09-09T01:46:15;1.27;;;0.63;;
12980;SDS011;6555;50.468;8.480;2022-09-09T01:51:19;1.23;;;0.60;;
12980;SDS011;6555;50.468;8.480;2022-09-09T01:56:27;1.38;;;0.68;;
12980;SDS011;6555;50.468;8.480;2022-09-09T02:01:43;1.67;;;0.90;;
12980;SDS011;6555;50.468;8.480;2022-09-09T02:06:56;0.90;;;0.60;;
12980;SDS011;6555;50.468;8.480;2022-09-09T02:12:04;1.48;;;1.05;;
12980;SDS011;6555;50.468;8.480;2022-09-09T02:17:24;1.60;;;1.02;;
12980;SDS011;6555;50.468;8.480;2022-09-09T02:22:39;1.65;;;0.50;;
12980;SDS011;6555;50.468;8.480;2022-09-09T02:27:47;0.40;;;0.28;;
12980;SDS011;6555;50.468;8.480;2022-09-09T02:32:55;1.65;;;0.63;;
12980;SDS011;6555;50.468;8.480;2022-09-09T02:38:15;0.70;;;0.70;;
12980;SDS011;6555;50.468;8.480;2022-09-09T02:43:32;0.80;;;0.70;;
12980;SDS011;6555;50.468;8.480;2022-09-09T02:48:42;1.05;;;0.57;;
12980;SDS011;6555;50.468;8.480;2022-09-09T02:53:56;0.98;;;0.63;;
12980;SDS011;6555;50.468;8.480;2022-09-09T02:59:06;1.40;;;0.70;;
12980;SDS011;6555;50.468;8.480;2022-09-09T03:04:12;1.55;;;0.60;;
12980;SDS011;6555;50.468;8.480;2022-09-09T03:09:15;1.20;;;0.73;;
12980;SDS011;6555;50.468;8.480;2022-09-09T03:14:18;0.77;;;0.60;;
12980;SDS011;6555;50.468;8.480;2022-09-09T03:19:25;0.68;;;0.47;;
12980;SDS011;6555;50.468;8.480;2022-09-09T03:24:29;0.88;;;0.80;;
12980;SDS011;6555;50.468;8.480;2022-09-09T03:29:32;0.50;;;0.40;;
12980;SDS011;6555;50.468;8.480;2022-09-09T03:34:41;2.05;;;0.77;;
12980;SDS011;6555;50.468;8.480;2022-09-09T03:39:47;1.63;;;0.75;;
12980;SDS011;6555;50.468;8.480;2022-09-09T03:44:51;0.47;;;0.47;;
12980;SDS011;6555;50.468;8.480;2022-09-09T03:49:59;0.63;;;0.60;;
12980;SDS011;6555;50.468;8.480;2022-09-09T03:55:03;1.17;;;0.77;;
12980;SDS011;6555;50.468;8.480;2022-09-09T04:00:07;0.73;;;0.70;;
12980;SDS011;6555;50.468;8.480;2022-09-09T04:05:21;1.65;;;0.70;;
12980;SDS011;6555;50.468;8.480;2022-09-09T04:10:24;1.35;;;0.77;;
12980;SDS011;6555;50.468;8.480;2022-09-09T04:15:30;1.35;;;0.70;;
12980;SDS011;6555;50.468;8.480;2022-09-09T04:20:35;0.50;;;0.50;;
12980;SDS011;6555;50.468;8.480;2022-09-09T04:25:42;0.82;;;0.52;;
12980;SDS011;6555;50.468;8.480;2022-09-09T04:30:48;1.73;;;0.85;;
12980;SDS011;6555;50.468;8.480;2022-09-09T04:35:53;1.00;;;0.68;;
12980;SDS011;6555;50.468;8.480;2022-09-09T04:40:59;1.83;;;0.57;;
12980;SDS011;6555;50.468;8.480;2022-09-09T04:46:03;1.77;;;0.80;;
12980;SDS011;6555;50.468;8.480;2022-09-09T04:51:08;1.10;;;0.65;;
12980;SDS011;6555;50.468;8.480;2022-09-09T04:56:16;1.17;;;0.80;;
12980;SDS011;6555;50.468;8.480;2022-09-09T05:01:25;1.27;;;0.77;;
12980;SDS011;6555;50.468;8.480;2022-09-09T05:06:36;1.77;;;0.85;;
12980;SDS011;6555;50.468;8.480;2022-09-09T05:11:39;1.40;;;0.80;;
12980;SDS011;6555;50.468;8.480;2022-09-09T05:16:59;1.05;;;0.70;;
12980;SDS011;6555;50.468;8.480;2022-09-09T05:22:03;1.52;;;1.02;;
12980;SDS011;6555;50.468;8.480;2022-09-09T05:27:14;0.93;;;0.70;;
12980;SDS011;6555;50.468;8.480;2022-09-09T05:32:17;1.35;;;0.77;;
12980;SDS011;6555;50.468;8.480;2022-09-09T05:37:24;1.45;;;0.80;;
12980;SDS011;6555;50.468;8.480;2022-09-09T05:42:29;1.33;;;0.70;;
12980;SDS011;6555;50.468;8.480;2022-09-09T05:47:34;0.73;;;0.52;;
12980;SDS011;6555;50.468;8.480;2022-09-09T05:52:42;0.43;;;0.35;;
12980;SDS011;6555;50.468;8.480;2022-09-09T05:57:48;1.10;;;0.65;;
12980;SDS011;6555;50.468;8.480;2022-09-09T06:02:54;0.60;;;0.57;;
12980;SDS011;6555;50.468;8.480;2022-09-09T06:07:59;0.75;;;0.65;;
12980;SDS011;6555;50.468;8.480;2022-09-09T06:13:02;1.05;;;0.50;;
12980;SDS011;6555;50.468;8.480;2022-09-09T06:18:05;0.65;;;0.65;;
12980;SDS011;6555;50.468;8.480;2022-09-09T06:23:10;1.77;;;0.70;;
12980;SDS011;6555;50.468;8.480;2022-09-09T06:28:14;1.52;;;0.88;;
12980;SDS011;6555;50.468;8.480;2022-09-09T06:33:17;0.63;;;0.63;;
12980;SDS011;6555;50.468;8.480;2022-09-09T06:38:22;2.03;;;0.85;;
12980;SDS011;6555;50.468;8.480;2022-09-09T06:43:27;1.20;;;0.70;;
12980;SDS011;6555;50.468;8.480;2022-09-09T06:48:30;0.90;;;0.65;;
12980;SDS011;6555;50.468;8.480;2022-09-09T06:53:36;1.65;;;0.82;;
12980;SDS011;6555;50.468;8.480;2022-09-09T06:58:40;1.73;;;0.60;;
12980;SDS011;6555;50.468;8.480;2022-09-09T07:03:49;1.70;;;0.75;;
12980;SDS011;6555;50.468;8.480;2022-09-09T07:08:55;1.05;;;0.70;;
12980;SDS011;6555;50.468;8.480;2022-09-09T07:14:01;1.67;;;0.80;;
12980;SDS011;6555;50.468;8.480;2022-09-09T07:19:04;1.42;;;0.85;;
12980;SDS011;6555;50.468;8.480;2022-09-09T07:24:09;1.08;;;0.65;;
12980;SDS011;6555;50.468;8.480;2022-09-09T07:29:16;1.38;;;0.70;;
12980;SDS011;6555;50.468;8.480;2022-09-09T07:34:22;1.38;;;0.77;;
12980;SDS011;6555;50.468;8.480;2022-09-09T07:39:27;0.63;;;0.50;;
12980;SDS011;6555;50.468;8.480;2022-09-09T07:44:30;2.03;;;0.80;;
12980;SDS011;6555;50.468;8.480;2022-09-09T07:49:43;1.77;;;1.00;;
12980;SDS011;6555;50.468;8.480;2022-09-09T07:54:51;2.90;;;1.30;;
12980;SDS011;6555;50.468;8.480;2022-09-09T07:59:54;2.58;;;0.93;;
12980;SDS011;6555;50.468;8.480;2022-09-09T08:04:58;2.72;;;1.13;;
12980;SDS011;6555;50.468;8.480;2022-09-09T08:10:03;2.17;;;1.10;;
12980;SDS011;6555;50.468;8.480;2022-09-09T08:15:09;1.48;;;0.90;;
12980;SDS011;6555;50.468;8.480;2022-09-09T08:20:14;1.83;;;0.82;;
12980;SDS011;6555;50.468;8.480;2022-09-09T08:25:19;0.85;;;0.65;;
12980;SDS011;6555;50.468;8.480;2022-09-09T08:30:22;2.25;;;0.90;;
12980;SDS011;6555;50.468;8.480;2022-09-09T08:35:25;2.20;;;1.20;;
12980;SDS011;6555;50.468;8.480;2022-09-09T08:40:32;3.20;;;1.25;;
12980;SDS011;6555;50.468;8.480;2022-09-09T08:45:42;3.10;;;1.45;;
12980;SDS011;6555;50.468;8.480;2022-09-09T08:50:58;1.65;;;0.95;;
12980;SDS011;6555;50.468;8.480;2022-09-09T08:56:09;3.83;;;1.00;;
12980;SDS011;6555;50.468;8.480;2022-09-09T09:01:28;2.08;;;0.90;;
12980;SDS011;6555;50.468;8.480;2022-09-09T09:06:43;3.40;;;1.13;;
12980;SDS011;6555;50.468;8.480;2022-09-09T09:11:53;1.33;;;0.73;;
12980;SDS011;6555;50.468;8.480;2022-09-09T09:17:09;2.30;;;0.90;;
12980;SDS011;6555;50.468;8.480;2022-09-09T09:22:17;2.78;;;1.10;;
12980;SDS011;6555;50.468;8.480;2022-09-09T09:27:30;1.80;;;0.82;;
12980;SDS011;6555;50.468;8.480;2022-09-09T09:32:35;2.47;;;1.05;;
12980;SDS011;6555;50.468;8.480;2022-09-09T09:37:42;1.10;;;1.00;;
12980;SDS011;6555;50.468;8.480;2022-09-09T09:43:17;2.53;;;1.02;;
12980;SDS011;6555;50.468;8.480;2022-09-09T09:48:24;2.78;;;1.00;;
12980;SDS011;6555;50.468;8.480;2022-09-09T09:53:29;1.33;;;0.90;;
12980;SDS011;6555;50.468;8.480;2022-09-09T09:58:37;4.97;;;0.98;;
12980;SDS011;6555;50.468;8.480;2022-09-09T10:03:57;2.25;;;1.00;;
12980;SDS011;6555;50.468;8.480;2022-09-09T10:09:02;1.23;;;0.80;;
12980;SDS011;6555;50.468;8.480;2022-09-09T10:14:24;1.25;;;0.90;;
12980;SDS011;6555;50.468;8.480;2022-09-09T10:19:35;1.15;;;0.73;;
12980;SDS011;6555;50.468;8.480;2022-09-09T10:24:49;2.80;;;1.10;;
12980;SDS011;6555;50.468;8.480;2022-09-09T10:30:07;1.05;;;0.60;;
12980;SDS011;6555;50.468;8.480;2022-09-09T10:35:27;1.08;;;0.80;;
12980;SDS011;6555;50.468;8.480;2022-09-09T10:40:36;2.17;;;0.90;;
12980;SDS011;6555;50.468;8.480;2022-09-09T10:45:47;1.52;;;0.70;;
12980;SDS011;6555;50.468;8.480;2022-09-09T10:51:00;1.02;;;0.60;;
12980;SDS011;6555;50.468;8.480;2022-09-09T10:56:12;1.45;;;0.80;;
12980;SDS011;6555;50.468;8.480;2022-09-09T11:01:20;0.80;;;0.57;;
12980;SDS011;6555;50.468;8.480;2022-09-09T11:06:29;1.20;;;0.80;;
12980;SDS011;6555;50.468;8.480;2022-09-09T11:11:39;1.65;;;0.98;;
12980;SDS011;6555;50.468;8.480;2022-09-09T11:16:49;1.92;;;0.85;;
12980;SDS011;6555;50.468;8.480;2022-09-09T11:21:56;1.45;;;0.85;;
12980;SDS011;6555;50.468;8.480;2022-09-09T11:27:02;1.35;;;0.80;;
12980;SDS011;6555;50.468;8.480;2022-09-09T11:32:16;1.35;;;0.75;;
12980;SDS011;6555;50.468;8.480;2022-09-09T11:43:02;0.82;;;0.60;;
12980;SDS011;6555;50.468;8.480;2022-09-09T11:48:21;0.93;;;0.57;;
12980;SDS011;6555;50.468;8.480;2022-09-09T11:53:27;1.13;;;0.70;;
12980;SDS011;6555;50.468;8.480;2022-09-09T11:58:31;0.55;;;0.40;;
12980;SDS011;6555;50.468;8.480;2022-09-09T12:03:44;1.20;;;0.70;;
12980;SDS011;6555;50.468;8.480;2022-09-09T12:08:50;1.35;;;0.50;;
12980;SDS011;6555;50.468;8.480;2022-09-09T12:13:57;1.73;;;0.70;;
12980;SDS011;6555;50.468;8.480;2022-09-09T12:19:12;1.00;;;0.70;;
12980;SDS011;6555;50.468;8.480;2022-09-09T12:24:19;4.15;;;0.70;;
12980;SDS011;6555;50.468;8.480;2022-09-09T12:29:28;0.73;;;0.52;;
12980;SDS011;6555;50.468;8.480;2022-09-09T12:34:41;0.98;;;0.73;;
12980;SDS011;6555;50.468;8.480;2022-09-09T12:39:47;0.57;;;0.55;;
12980;SDS011;6555;50.468;8.480;2022-09-09T12:44:55;1.38;;;0.73;;
12980;SDS011;6555;50.468;8.480;2022-09-09T12:50:00;1.55;;;0.80;;
12980;SDS011;6555;50.468;8.480;2022-09-09T12:55:03;0.75;;;0.60;;
12980;SDS011;6555;50.468;8.480;2022-09-09T13:00:12;1.90;;;1.00;;
12980;SDS011;6555;50.468;8.480;2022-09-09T13:05:20;2.15;;;1.05;;
12980;SDS011;6555;50.468;8.480;2022-09-09T13:10:25;1.50;;;0.98;;
12980;SDS011;6555;50.468;8.480;2022-09-09T13:15:48;0.98;;;0.70;;
12980;SDS011;6555;50.468;8.480;2022-09-09T13:20:54;2.25;;;1.27;;
12980;SDS011;6555;50.468;8.480;2022-09-09T13:25:59;1.20;;;0.75;;
12980;SDS011;6555;50.468;8.480;2022-09-09T13:31:05;1.52;;;0.80;;
12980;SDS011;6555;50.468;8.480;2022-09-09T13:36:28;0.68;;;0.45;;
12980;SDS011;6555;50.468;8.480;2022-09-09T13:41:33;0.80;;;0.40;;
12980;SDS011;6555;50.468;8.480;2022-09-09T13:46:38;0.57;;;0.57;;
12980;SDS011;6555;50.468;8.480;2022-09-09T13:51:44;0.43;;;0.32;;
12980;SDS011;6555;50.468;8.480;2022-09-09T13:56:50;0.60;;;0.50;;
12980;SDS011;6555;50.468;8.480;2022-09-09T14:01:53;1.77;;;0.60;;
12980;SDS011;6555;50.468;8.480;2022-09-09T14:06:57;1.45;;;0.70;;
12980;SDS011;6555;50.468;8.480;2022-09-09T14:12:00;0.98;;;0.50;;
12980;SDS011;6555;50.468;8.480;2022-09-09T14:17:04;0.45;;;0.40;;
12980;SDS011;6555;50.468;8.480;2022-09-09T14:22:09;0.65;;;0.50;;
12980;SDS011;6555;50.468;8.480;2022-09-09T14:27:13;0.63;;;0.50;;
12980;SDS011;6555;50.468;8.480;2022-09-09T14:32:19;0.77;;;0.50;;
12980;SDS011;6555;50.468;8.480;2022-09-09T14:37:23;1.05;;;0.75;;
12980;SDS011;6555;50.468;8.480;2022-09-09T14:42:26;1.25;;;0.80;;
12980;SDS011;6555;50.468;8.480;2022-09-09T14:47:31;2.13;;;0.80;;
12980;SDS011;6555;50.468;8.480;2022-09-09T14:52:35;1.55;;;0.70;;
12980;SDS011;6555;50.468;8.480;2022-09-09T14:57:38;1.83;;;0.80;;
12980;SDS011;6555;50.468;8.480;2022-09-09T15:02:41;0.98;;;0.82;;
12980;SDS011;6555;50.468;8.480;2022-09-09T15:07:46;0.93;;;0.68;;
12980;SDS011;6555;50.468;8.480;2022-09-09T15:12:49;1.10;;;0.70;;
12980;SDS011;6555;50.468;8.480;2022-09-09T15:17:52;1.27;;;0.50;;
12980;SDS011;6555;50.468;8.480;2022-09-09T15:22:56;1.48;;;0.80;;
12980;SDS011;6555;50.468;8.480;2022-09-09T15:27:59;2.00;;;0.80;;
12980;SDS011;6555;50.468;8.480;2022-09-09T15:33:07;1.48;;;0.70;;
12980;SDS011;6555;50.468;8.480;2022-09-09T15:38:14;0.98;;;0.73;;
12980;SDS011;6555;50.468;8.480;2022-09-09T15:43:17;0.68;;;0.50;;
12980;SDS011;6555;50.468;8.480;2022-09-09T15:48:21;1.95;;;1.00;;
12980;SDS011;6555;50.468;8.480;2022-09-09T15:53:34;1.83;;;0.65;;
12980;SDS011;6555;50.468;8.480;2022-09-09T15:58:37;0.80;;;0.60;;
12980;SDS011;6555;50.468;8.480;2022-09-09T16:03:41;1.73;;;0.88;;
12980;SDS011;6555;50.468;8.480;2022-09-09T16:08:49;1.80;;;0.70;;
12980;SDS011;6555;50.468;8.480;2022-09-09T16:13:54;0.50;;;0.50;;
12980;SDS011;6555;50.468;8.480;2022-09-09T16:18:57;2.45;;;0.70;;
12980;SDS011;6555;50.468;8.480;2022-09-09T16:24:04;0.80;;;0.60;;
12980;SDS011;6555;50.468;8.480;2022-09-09T16:29:07;0.85;;;0.70;;
12980;SDS011;6555;50.468;8.480;2022-09-09T16:34:11;1.23;;;0.70;;
12980;SDS011;6555;50.468;8.480;2022-09-09T16:39:17;0.60;;;0.50;;
12980;SDS011;6555;50.468;8.480;2022-09-09T16:44:21;1.50;;;0.88;;
12980;SDS011;6555;50.468;8.480;2022-09-09T16:49:24;1.23;;;0.55;;
12980;SDS011;6555;50.468;8.480;2022-09-09T16:54:30;1.00;;;0.60;;
12980;SDS011;6555;50.468;8.480;2022-09-09T16:59:33;3.95;;;0.70;;
12980;SDS011;6555;50.468;8.480;2022-09-09T17:04:36;1.08;;;0.70;;
12980;SDS011;6555;50.468;8.480;2022-09-09T17:09:41;0.60;;;0.47;;
12980;SDS011;6555;50.468;8.480;2022-09-09T17:14:46;0.95;;;0.68;;
12980;SDS011;6555;50.468;8.480;2022-09-09T17:19:49;0.77;;;0.70;;
12980;SDS011;6555;50.468;8.480;2022-09-09T17:24:53;0.70;;;0.60;;
12980;SDS011;6555;50.468;8.480;2022-09-09T17:29:56;0.77;;;0.50;;
12980;SDS011;6555;50.468;8.480;2022-09-09T17:34:59;1.45;;;0.60;;
12980;SDS011;6555;50.468;8.480;2022-09-09T17:40:04;1.20;;;0.52;;
12980;SDS011;6555;50.468;8.480;2022-09-09T17:45:08;0.43;;;0.30;;
12980;SDS011;6555;50.468;8.480;2022-09-09T17:50:11;0.30;;;0.28;;
12980;SDS011;6555;50.468;8.480;2022-09-09T17:55:16;0.30;;;0.30;;
12980;SDS011;6555;50.468;8.480;2022-09-09T18:00:19;0.55;;;0.32;;
12980;SDS011;6555;50.468;8.480;2022-09-09T18:05:22;0.40;;;0.40;;
12980;SDS011;6555;50.468;8.480;2022-09-09T18:10:26;0.63;;;0.35;;
12980;SDS011;6555;50.468;8.480;2022-09-09T18:15:29;0.88;;;0.63;;
12980;SDS011;6555;50.468;8.480;2022-09-09T18:20:56;0.43;;;0.43;;
12980;SDS011;6555;50.468;8.480;2022-09-09T18:26:01;1.48;;;0.43;;
12980;SDS011;6555;50.468;8.480;2022-09-09T18:31:11;0.75;;;0.50;;
12980;SDS011;6555;50.468;8.480;2022-09-09T18:36:16;0.28;;;0.28;;
12980;SDS011;6555;50.468;8.480;2022-09-09T18:41:23;0.60;;;0.40;;
12980;SDS011;6555;50.468;8.480;2022-09-09T18:46:28;0.40;;;0.40;;
12980;SDS011;6555;50.468;8.480;2022-09-09T18:51:32;1.02;;;0.50;;
12980;SDS011;6555;50.468;8.480;2022-09-09T18:56:38;0.90;;;0.50;;
12980;SDS011;6555;50.468;8.480;2022-09-09T19:01:42;0.60;;;0.60;;
12980;SDS011;6555;50.468;8.480;2022-09-09T19:06:45;0.43;;;0.40;;
12980;SDS011;6555;50.468;8.480;2022-09-09T19:11:51;0.57;;;0.47;;
12980;SDS011;6555;50.468;8.480;2022-09-09T19:16:54;0.65;;;0.40;;
12980;SDS011;6555;50.468;8.480;2022-09-09T19:21:57;0.77;;;0.47;;
12980;SDS011;6555;50.468;8.480;2022-09-09T19:27:04;0.60;;;0.50;;
12980;SDS011;6555;50.468;8.480;2022-09-09T19:32:07;0.63;;;0.60;;
12980;SDS011;6555;50.468;8.480;2022-09-09T19:37:31;0.90;;;0.43;;
12980;SDS011;6555;50.468;8.480;2022-09-09T19:42:35;0.23;;;0.23;;
12980;SDS011;6555;50.468;8.480;2022-09-09T19:47:38;0.70;;;0.30;;
12980;SDS011;6555;50.468;8.480;2022-09-09T19:52:43;0.83;;;0.60;;
12980;SDS011;6555;50.468;8.480;2022-09-09T19:57:47;0.43;;;0.43;;
12980;SDS011;6555;50.468;8.480;2022-09-09T20:02:50;0.40;;;0.40;;
12980;SDS011;6555;50.468;8.480;2022-09-09T20:08:13;0.70;;;0.47;;
12980;SDS011;6555;50.468;8.480;2022-09-09T20:13:17;1.70;;;0.60;;
12980;SDS011;6555;50.468;8.480;2022-09-09T20:18:21;1.50;;;0.70;;
12980;SDS011;6555;50.468;8.480;2022-09-09T20:23:24;0.53;;;0.37;;
12980;SDS011;6555;50.468;8.480;2022-09-09T20:28:28;1.23;;;0.40;;
12980;SDS011;6555;50.468;8.480;2022-09-09T20:33:32;0.47;;;0.40;;
12980;SDS011;6555;50.468;8.480;2022-09-09T20:38:36;0.40;;;0.40;;
12980;SDS011;6555;50.468;8.480;2022-09-09T20:43:47;0.67;;;0.40;;
12980;SDS011;6555;50.468;8.480;2022-09-09T20:48:52;0.30;;;0.20;;
12980;SDS011;6555;50.468;8.480;2022-09-09T20:54:02;1.37;;;0.60;;
12980;SDS011;6555;50.468;8.480;2022-09-09T20:59:08;0.13;;;0.13;;
12980;SDS011;6555;50.468;8.480;2022-09-09T21:04:14;0.30;;;0.30;;
12980;SDS011;6555;50.468;8.480;2022-09-09T21:09:19;0.60;;;0.40;;
12980;SDS011;6555;50.468;8.480;2022-09-09T21:14:24;0.30;;;0.30;;
12980;SDS011;6555;50.468;8.480;2022-09-09T21:19:28;0.23;;;0.23;;
12980;SDS011;6555;50.468;8.480;2022-09-09T21:24:32;0.10;;;0.10;;
12980;SDS011;6555;50.468;8.480;2022-09-09T21:29:36;0.10;;;0.10;;
12980;SDS011;6555;50.468;8.480;2022-09-09T21:34:40;0.30;;;0.20;;
12980;SDS011;6555;50.468;8.480;2022-09-09T21:39:43;1.13;;;0.30;;
12980;SDS011;6555;50.468;8.480;2022-09-09T21:44:49;0.30;;;0.30;;
12980;SDS011;6555;50.468;8.480;2022-09-09T21:49:52;0.50;;;0.23;;
12980;SDS011;6555;50.468;8.480;2022-09-09T21:54:55;0.30;;;0.30;;
12980;SDS011;6555;50.468;8.480;2022-09-09T21:59:59;0.40;;;0.40;;
12980;SDS011;6555;50.468;8.480;2022-09-09T22:05:13;0.30;;;0.30;;
12980;SDS011;6555;50.468;8.480;2022-09-09T22:10:15;0.20;;;0.20;;
12980;SDS011;6555;50.468;8.480;2022-09-09T22:15:21;0.37;;;0.37;;
12980;SDS011;6555;50.468;8.480;2022-09-09T22:20:24;0.30;;;0.30;;
12980;SDS011;6555;50.468;8.480;2022-09-09T22:25:27;0.47;;;0.10;;
12980;SDS011;6555;50.468;8.480;2022-09-09T22:30:35;0.40;;;0.23;;
12980;SDS011;6555;50.468;8.480;2022-09-09T22:35:39;1.20;;;0.40;;
12980;SDS011;6555;50.468;8.480;2022-09-09T22:40:43;1.43;;;0.40;;
12980;SDS011;6555;50.468;8.480;2022-09-09T22:45:48;1.37;;;0.27;;
12980;SDS011;6555;50.468;8.480;2022-09-09T22:50:51;0.40;;;0.30;;
12980;SDS011;6555;50.468;8.480;2022-09-09T22:55:55;0.40;;;0.40;;
12980;SDS011;6555;50.468;8.480;2022-09-09T23:01:06;0.27;;;0.27;;
12980;SDS011;6555;50.468;8.480;2022-09-09T23:06:11;0.10;;;0.07;;
12980;SDS011;6555;50.468;8.480;2022-09-09T23:11:20;0.30;;;0.30;;
12980;SDS011;6555;50.468;8.480;2022-09-09T23:16:26;0.77;;;0.60;;
12980;SDS011;6555;50.468;8.480;2022-09-09T23:21:31;1.33;;;0.67;;
12980;SDS011;6555;50.468;8.480;2022-09-09T23:26:34;1.23;;;0.60;;
12980;SDS011;6555;50.468;8.480;2022-09-09T23:31:39;0.40;;;0.40;;
12980;SDS011;6555;50.468;8.480;2022-09-09T23:36:43;0.53;;;0.47;;
12980;SDS011;6555;50.468;8.480;2022-09-09T23:41:47;0.50;;;0.40;;
12980;SDS011;6555;50.468;8.480;2022-09-09T23:46:52;1.07;;;0.50;;
12980;SDS011;6555;50.468;8.480;2022-09-09T23:51:56;0.33;;;0.23;;
12980;SDS011;6555;50.468;8.480;2022-09-09T23:56:59;0.50;;;0.43;;
